Time;durP1;ratioP1;P1;durP2;ratioP2;P2;SDS_P1;SDS_P2;PMS_P1;PMS_P2;Temp;Humidity;BMP_temperature;BMP_pressure;BME280_temperature;BME280_humidity;BME280_pressure;Samples;Min_cycle;Max_cycle;Signal;HPM_P1;HPM_P2
2022/03/04 00:01:16;;;;;;;0.93;0.50;;;10.60;99.90;;;;;;5067802;28;20495;-65
2022/03/04 00:03:47;;;;;;;0.57;0.57;;;10.50;99.90;;;;;;5063296;28;20908;-65
2022/03/04 00:06:20;;;;;;;0.60;0.50;;;10.60;99.90;;;;;;5064619;28;20473;-65
2022/03/04 00:08:51;;;;;;;1.47;0.70;;;10.40;99.90;;;;;;5065479;28;20448;-65
2022/03/04 00:11:22;;;;;;;0.63;0.63;;;10.20;99.90;;;;;;5065141;28;20460;-65
2022/03/04 00:13:53;;;;;;;1.20;0.40;;;10.00;99.90;;;;;;5069141;28;20517;-65
2022/03/04 00:16:25;;;;;;;0.87;0.73;;;9.90;99.90;;;;;;5064772;28;20457;-65
2022/03/04 00:19:08;;;;;;;1.17;0.50;;;10.00;99.90;;;;;;5062980;28;20429;-65
2022/03/04 00:21:44;;;;;;;0.90;0.80;;;10.00;99.90;;;;;;5072130;28;20526;-64
2022/03/04 00:24:16;;;;;;;0.77;0.77;;;10.30;99.90;;;;;;5064602;28;20471;-65
2022/03/04 00:26:48;;;;;;;0.60;0.60;;;10.40;99.90;;;;;;5063435;28;20457;-66
2022/03/04 00:29:19;;;;;;;2.70;0.93;;;10.40;99.90;;;;;;5063145;28;20514;-66
2022/03/04 00:31:52;;;;;;;2.47;0.83;;;10.50;99.90;;;;;;5064002;28;20472;-65
2022/03/04 00:34:25;;;;;;;1.63;1.07;;;10.50;99.90;;;;;;5063461;28;20480;-66
2022/03/04 00:36:58;;;;;;;1.20;1.10;;;10.40;99.90;;;;;;5064362;28;20519;-66
2022/03/04 00:39:29;;;;;;;1.30;1.20;;;10.60;99.90;;;;;;5064227;28;20524;-66
2022/03/04 00:42:00;;;;;;;2.00;1.17;;;10.80;99.90;;;;;;5063975;28;20516;-65
2022/03/04 00:44:34;;;;;;;1.37;1.10;;;11.00;99.90;;;;;;5063084;28;20456;-65
2022/03/04 00:47:06;;;;;;;0.87;0.87;;;11.10;99.90;;;;;;5063788;28;20511;-65
2022/03/04 00:49:37;;;;;;;1.10;1.00;;;11.00;99.90;;;;;;5063812;28;20452;-65
2022/03/04 00:52:10;;;;;;;3.60;1.20;;;10.90;99.90;;;;;;5063662;28;20504;-65
2022/03/04 00:54:41;;;;;;;1.07;0.87;;;10.80;99.90;;;;;;5063645;28;20468;-65
2022/03/04 00:57:12;;;;;;;1.93;0.97;;;10.70;99.90;;;;;;5062813;28;20517;-65
2022/03/04 00:59:46;;;;;;;1.77;0.87;;;10.60;99.90;;;;;;5063348;28;20460;-65
2022/03/04 01:02:17;;;;;;;1.90;1.37;;;10.50;99.90;;;;;;5063173;28;20563;-65
2022/03/04 01:04:48;;;;;;;1.70;1.50;;;10.50;99.90;;;;;;5061680;28;20444;-69
2022/03/04 01:07:21;;;;;;;1.83;1.27;;;10.60;99.90;;;;;;5060964;28;20604;-64
2022/03/04 01:09:52;;;;;;;2.27;1.17;;;10.60;99.90;;;;;;5063970;28;20471;-66
2022/03/04 01:12:23;;;;;;;1.50;1.37;;;10.50;99.90;;;;;;5058482;28;20609;-65
2022/03/04 01:14:54;;;;;;;1.33;1.10;;;10.50;99.90;;;;;;5062471;28;20930;-66
2022/03/04 01:17:26;;;;;;;1.30;1.13;;;10.30;99.90;;;;;;5063221;28;20452;-66
2022/03/04 01:19:57;;;;;;;1.70;1.60;;;10.20;99.90;;;;;;5062669;28;20516;-65
2022/03/04 01:22:29;;;;;;;1.80;1.30;;;10.10;99.90;;;;;;5063355;28;20479;-66
2022/03/04 01:25:03;;;;;;;1.30;1.10;;;10.00;99.90;;;;;;5069656;28;20451;-66
2022/03/04 01:27:35;;;;;;;1.60;1.37;;;10.00;99.90;;;;;;5064611;28;20452;-65
2022/03/04 01:30:08;;;;;;;1.83;1.73;;;10.00;99.90;;;;;;5067324;28;20448;-65
2022/03/04 01:32:41;;;;;;;1.70;1.60;;;10.00;99.90;;;;;;5061356;28;20492;-67
2022/03/04 01:35:15;;;;;;;1.93;1.37;;;9.90;99.90;;;;;;5065253;28;20514;-65
2022/03/04 01:37:47;;;;;;;3.90;1.33;;;9.90;99.90;;;;;;5068510;28;20440;-65
2022/03/04 01:40:19;;;;;;;1.27;0.83;;;9.90;99.90;;;;;;5063241;28;20445;-63
2022/03/04 01:42:49;;;;;;;1.87;1.10;;;9.90;99.90;;;;;;5067452;28;20484;-64
2022/03/04 01:45:22;;;;;;;1.00;0.90;;;9.80;99.90;;;;;;5061583;28;20448;-63
2022/03/04 01:47:53;;;;;;;0.80;0.80;;;9.60;99.90;;;;;;5062635;28;20535;-63
2022/03/04 01:50:25;;;;;;;0.43;0.43;;;9.60;99.90;;;;;;5067360;28;20484;-62
2022/03/04 01:52:58;;;;;;;0.87;0.67;;;9.50;99.90;;;;;;5067550;28;20468;-65
2022/03/04 01:55:29;;;;;;;0.30;0.30;;;9.50;99.90;;;;;;5072031;28;20539;-62
2022/03/04 01:58:01;;;;;;;0.60;0.27;;;9.40;99.90;;;;;;5063930;28;20452;-66
2022/03/04 02:00:31;;;;;;;0.87;0.40;;;9.20;99.90;;;;;;5062248;28;20515;-66
2022/03/04 02:03:03;;;;;;;0.87;0.53;;;9.10;99.90;;;;;;5063597;28;20579;-64
2022/03/04 02:05:34;;;;;;;0.40;0.30;;;9.10;99.90;;;;;;5064694;28;20512;-66
2022/03/04 02:08:07;;;;;;;0.80;0.47;;;8.90;99.90;;;;;;5061173;28;20196;-67
2022/03/04 02:10:38;;;;;;;0.70;0.50;;;8.90;99.90;;;;;;5062795;28;20489;-68
2022/03/04 02:13:09;;;;;;;1.58;0.70;;;8.80;99.90;;;;;;5068198;28;20305;-65
2022/03/04 02:15:40;;;;;;;0.82;0.70;;;8.70;99.90;;;;;;5061997;28;20289;-68
2022/03/04 02:18:15;;;;;;;1.10;1.00;;;8.50;99.90;;;;;;5067522;28;20206;-64
2022/03/04 02:20:48;;;;;;;1.45;1.33;;;8.50;99.90;;;;;;5064524;28;20252;-66
2022/03/04 02:23:22;;;;;;;1.40;0.80;;;8.30;99.90;;;;;;5073898;28;20210;-67
2022/03/04 02:25:53;;;;;;;1.40;1.30;;;8.30;99.90;;;;;;5065547;28;20198;-66
2022/03/04 02:28:25;;;;;;;1.20;0.90;;;8.20;99.90;;;;;;5064174;28;20202;-66
2022/03/04 02:30:58;;;;;;;1.10;1.10;;;8.10;99.90;;;;;;5065000;28;20225;-66
2022/03/04 02:33:31;;;;;;;1.00;0.80;;;8.00;99.90;;;;;;5065314;28;20205;-64
2022/03/04 02:36:04;;;;;;;0.82;0.60;;;8.00;99.90;;;;;;5066043;28;20347;-63
2022/03/04 02:38:36;;;;;;;2.03;0.93;;;7.90;99.90;;;;;;5068112;28;20194;-64
2022/03/04 02:41:07;;;;;;;0.93;0.60;;;7.80;99.90;;;;;;5065368;28;20258;-63
2022/03/04 02:43:38;;;;;;;2.10;0.90;;;7.80;99.90;;;;;;5065291;28;20240;-64
2022/03/04 02:46:09;;;;;;;0.88;0.70;;;7.80;99.90;;;;;;5064568;28;20213;-65
2022/03/04 02:48:41;;;;;;;1.67;0.90;;;7.80;99.90;;;;;;5064229;28;20248;-67
2022/03/04 02:51:12;;;;;;;0.80;0.80;;;7.80;99.90;;;;;;5075733;28;20273;-65
2022/03/04 02:53:45;;;;;;;0.80;0.77;;;7.80;99.90;;;;;;5064662;28;20610;-64
2022/03/04 02:56:16;;;;;;;2.55;0.98;;;7.80;99.90;;;;;;5063898;28;20194;-65
2022/03/04 02:58:47;;;;;;;0.93;0.88;;;7.90;99.90;;;;;;5064159;28;20312;-64
2022/03/04 03:01:18;;;;;;;1.40;1.10;;;7.90;99.90;;;;;;5064361;28;20213;-64
2022/03/04 03:03:50;;;;;;;1.60;1.27;;;8.00;99.90;;;;;;5072931;28;20337;-63
2022/03/04 03:06:21;;;;;;;1.77;1.25;;;8.00;99.90;;;;;;5069052;28;20281;-64
2022/03/04 03:08:54;;;;;;;1.33;1.23;;;8.00;99.90;;;;;;5068955;28;20204;-65
2022/03/04 03:11:25;;;;;;;1.30;1.20;;;8.00;99.90;;;;;;5059072;28;20270;-64
2022/03/04 03:13:56;;;;;;;1.63;0.93;;;8.00;99.90;;;;;;5063464;28;20244;-64
2022/03/04 03:16:28;;;;;;;1.20;1.10;;;7.90;99.90;;;;;;5063291;28;20232;-64
2022/03/04 03:19:00;;;;;;;1.50;1.40;;;8.00;99.90;;;;;;5063618;28;20225;-64
2022/03/04 03:21:32;;;;;;;1.30;1.20;;;8.00;99.90;;;;;;5064456;28;20277;-64
2022/03/04 03:24:04;;;;;;;2.80;2.60;;;7.90;99.90;;;;;;5064142;28;20268;-65
2022/03/04 03:26:35;;;;;;;3.65;3.35;;;7.80;99.90;;;;;;5064960;28;20229;-65
2022/03/04 03:29:10;;;;;;;5.50;5.10;;;7.60;99.90;;;;;;5072256;28;20233;-65
2022/03/04 03:31:41;;;;;;;5.25;4.85;;;7.50;99.90;;;;;;5068525;28;20197;-65
2022/03/04 03:34:15;;;;;;;9.23;5.10;;;7.50;99.90;;;;;;5064676;28;20560;-64
2022/03/04 03:36:46;;;;;;;3.70;3.40;;;7.50;99.90;;;;;;5068028;28;20197;-65
2022/03/04 03:39:21;;;;;;;3.25;2.55;;;7.50;99.90;;;;;;5066637;28;20202;-65
2022/03/04 03:41:56;;;;;;;3.60;3.30;;;7.40;99.90;;;;;;5063856;28;20249;-65
2022/03/04 03:44:29;;;;;;;3.40;3.10;;;7.30;99.90;;;;;;5063810;28;20209;-65
2022/03/04 03:47:02;;;;;;;3.40;3.10;;;7.20;99.90;;;;;;5064165;28;20674;-64
2022/03/04 03:49:33;;;;;;;3.85;3.50;;;7.20;99.90;;;;;;5064625;28;20212;-64
2022/03/04 03:52:05;;;;;;;3.50;3.20;;;7.20;99.90;;;;;;5064296;28;20575;-64
2022/03/04 03:54:37;;;;;;;3.40;3.10;;;7.20;99.90;;;;;;5069895;28;20192;-63
2022/03/04 03:57:10;;;;;;;3.22;3.03;;;7.30;99.90;;;;;;5075425;28;20198;-63
2022/03/04 03:59:41;;;;;;;4.35;3.80;;;7.30;99.90;;;;;;5064432;28;20234;-64
2022/03/04 04:02:12;;;;;;;4.60;4.15;;;7.20;99.90;;;;;;5073769;28;20270;-64
2022/03/04 04:04:44;;;;;;;5.43;3.65;;;7.20;99.90;;;;;;5065039;28;20210;-64
2022/03/04 04:07:16;;;;;;;4.70;4.30;;;7.10;99.90;;;;;;5064699;28;20313;-64
2022/03/04 04:09:48;;;;;;;5.07;3.97;;;7.20;99.90;;;;;;5064507;28;20622;-64
2022/03/04 04:12:19;;;;;;;4.38;3.97;;;7.10;99.90;;;;;;5066753;28;20199;-64
2022/03/04 04:14:50;;;;;;;3.50;3.30;;;7.10;99.90;;;;;;5064218;28;20260;-63
2022/03/04 04:17:21;;;;;;;3.85;3.03;;;7.20;99.90;;;;;;5070129;28;20205;-64
2022/03/04 04:19:53;;;;;;;3.78;3.47;;;7.20;99.90;;;;;;5064779;28;20673;-64
2022/03/04 04:22:24;;;;;;;3.08;2.65;;;7.30;99.90;;;;;;5065290;28;20221;-63
2022/03/04 04:24:56;;;;;;;2.90;2.70;;;7.30;99.90;;;;;;5063878;28;20201;-63
2022/03/04 04:27:29;;;;;;;3.83;3.30;;;7.30;99.90;;;;;;5061659;28;20265;-65
2022/03/04 04:30:00;;;;;;;3.65;3.00;;;7.30;99.90;;;;;;5063539;28;20305;-64
2022/03/04 04:32:31;;;;;;;3.03;2.60;;;7.20;99.90;;;;;;5064216;28;20228;-64
2022/03/04 04:35:03;;;;;;;2.72;2.53;;;7.20;99.90;;;;;;5073515;28;20297;-63
2022/03/04 04:37:34;;;;;;;2.50;2.30;;;7.20;99.90;;;;;;5069910;28;20194;-64
2022/03/04 04:40:08;;;;;;;2.58;2.30;;;7.00;99.90;;;;;;5070523;28;20277;-63
2022/03/04 04:42:43;;;;;;;3.78;2.95;;;6.90;99.90;;;;;;5063813;28;20562;-66
2022/03/04 04:45:15;;;;;;;2.85;2.63;;;6.80;99.90;;;;;;5062922;28;20275;-65
2022/03/04 04:47:46;;;;;;;3.42;2.75;;;6.70;99.90;;;;;;5062520;28;20236;-65
2022/03/04 04:50:17;;;;;;;3.53;2.40;;;6.70;99.90;;;;;;5065242;28;20280;-63
2022/03/04 04:52:48;;;;;;;3.45;2.80;;;6.50;99.90;;;;;;5053760;28;20641;-63
2022/03/04 04:55:20;;;;;;;2.85;2.65;;;6.50;99.90;;;;;;5064366;28;20252;-63
2022/03/04 04:57:51;;;;;;;3.20;3.00;;;6.50;99.90;;;;;;5061116;28;20216;-63
2022/03/04 05:00:22;;;;;;;4.45;3.85;;;6.40;99.90;;;;;;5068789;28;20209;-62
2022/03/04 05:02:53;;;;;;;4.63;4.22;;;6.40;99.90;;;;;;5062758;28;20236;-63
2022/03/04 05:05:24;;;;;;;4.75;4.10;;;6.40;99.90;;;;;;5063029;28;20206;-64
2022/03/04 05:07:55;;;;;;;4.07;3.67;;;6.40;99.90;;;;;;5061134;28;20207;-65
2022/03/04 05:10:28;;;;;;;7.47;4.07;;;6.20;99.90;;;;;;5062142;28;20583;-65
2022/03/04 05:12:59;;;;;;;4.07;3.47;;;6.20;99.90;;;;;;5053949;28;20208;-63
2022/03/04 05:15:30;;;;;;;4.10;3.70;;;6.10;99.90;;;;;;5063078;28;20221;-64
2022/03/04 05:18:04;;;;;;;3.95;3.65;;;6.10;99.90;;;;;;5057289;28;20495;-63
2022/03/04 05:20:35;;;;;;;3.55;3.25;;;6.00;99.90;;;;;;5061746;28;20206;-65
2022/03/04 05:23:06;;;;;;;5.10;3.97;;;6.00;99.90;;;;;;5062208;28;20248;-64
2022/03/04 05:25:39;;;;;;;4.20;3.90;;;6.00;99.90;;;;;;5060918;28;20621;-65
2022/03/04 05:28:10;;;;;;;3.95;3.53;;;6.00;99.90;;;;;;5055441;28;20194;-64
2022/03/04 05:30:41;;;;;;;3.90;3.60;;;5.90;99.90;;;;;;5062491;28;20221;-65
2022/03/04 05:33:12;;;;;;;4.63;4.10;;;5.80;99.90;;;;;;5062050;28;20197;-65
2022/03/04 05:35:45;;;;;;;5.78;4.35;;;5.80;99.90;;;;;;5066234;28;20197;-65
2022/03/04 05:38:16;;;;;;;6.57;4.00;;;5.80;99.90;;;;;;5062048;28;20208;-65
2022/03/04 05:40:48;;;;;;;3.55;3.28;;;5.70;99.90;;;;;;5061929;28;20220;-65
2022/03/04 05:43:19;;;;;;;3.90;3.60;;;5.70;99.90;;;;;;5060337;28;20255;-64
2022/03/04 05:45:51;;;;;;;4.03;3.63;;;5.80;99.90;;;;;;5061655;28;20210;-65
2022/03/04 05:48:22;;;;;;;4.15;3.75;;;5.80;99.90;;;;;;5061601;28;20224;-65
2022/03/04 05:50:53;;;;;;;3.72;3.45;;;5.80;99.90;;;;;;5061976;28;20202;-64
2022/03/04 05:53:24;;;;;;;6.88;5.07;;;5.80;99.90;;;;;;5062634;28;20190;-65
2022/03/04 05:55:56;;;;;;;5.32;4.93;;;5.80;99.90;;;;;;5063504;28;20267;-65
2022/03/04 05:58:27;;;;;;;4.25;3.85;;;5.80;99.90;;;;;;5053784;28;20202;-65
2022/03/04 06:00:59;;;;;;;5.30;4.80;;;5.70;99.90;;;;;;5060198;28;20213;-65
2022/03/04 06:03:31;;;;;;;4.30;4.00;;;5.80;99.90;;;;;;5061890;28;20225;-65
2022/03/04 06:06:03;;;;;;;4.70;4.30;;;5.70;99.90;;;;;;5062564;28;20637;-66
2022/03/04 06:08:34;;;;;;;6.15;4.68;;;5.70;99.90;;;;;;5062903;28;20194;-64
2022/03/04 06:11:09;;;;;;;6.88;5.80;;;5.70;99.90;;;;;;5061489;28;20186;-64
2022/03/04 06:13:40;;;;;;;5.95;5.45;;;5.60;99.90;;;;;;5065711;28;20250;-64
2022/03/04 06:16:12;;;;;;;7.53;5.85;;;5.40;99.90;;;;;;5053814;28;20205;-64
2022/03/04 06:18:43;;;;;;;7.25;5.93;;;5.40;99.90;;;;;;5062026;28;20216;-64
2022/03/04 06:21:14;;;;;;;6.13;5.53;;;5.30;99.90;;;;;;5062183;28;20205;-64
2022/03/04 06:23:44;;;;;;;6.72;6.10;;;5.30;99.90;;;;;;5065360;28;20205;-64
2022/03/04 06:26:17;;;;;;;8.18;6.65;;;5.40;99.90;;;;;;5071795;28;20208;-64
2022/03/04 06:28:48;;;;;;;8.73;6.80;;;5.40;99.90;;;;;;5061547;28;20273;-64
2022/03/04 06:31:19;;;;;;;7.35;6.65;;;5.40;99.90;;;;;;5060458;28;20217;-64
2022/03/04 06:33:50;;;;;;;9.00;8.05;;;5.40;99.90;;;;;;5061449;28;20202;-64
2022/03/04 06:36:21;;;;;;;12.48;10.05;;;5.40;99.90;;;;;;5063005;28;20205;-63
2022/03/04 06:38:52;;;;;;;10.43;8.88;;;5.30;99.90;;;;;;5063343;28;20186;-64
2022/03/04 06:41:24;;;;;;;14.52;8.85;;;5.30;99.90;;;;;;5061723;28;20212;-64
2022/03/04 06:43:55;;;;;;;10.73;8.98;;;5.20;99.90;;;;;;5061147;28;20242;-63
2022/03/04 06:46:26;;;;;;;10.90;9.70;;;5.10;99.90;;;;;;5062205;28;20205;-63
2022/03/04 06:48:57;;;;;;;11.75;10.60;;;5.10;99.90;;;;;;5061290;28;20277;-63
2022/03/04 06:51:29;;;;;;;12.38;10.95;;;5.20;99.90;;;;;;5069961;28;20220;-63
2022/03/04 06:54:00;;;;;;;12.07;10.85;;;5.30;99.90;;;;;;5070073;28;20190;-63
2022/03/04 06:56:32;;;;;;;12.68;11.38;;;5.30;99.90;;;;;;5070173;28;20301;-64
2022/03/04 06:59:03;;;;;;;13.52;12.00;;;5.30;99.90;;;;;;5067404;28;20198;-64
2022/03/04 07:01:34;;;;;;;14.15;12.75;;;5.50;99.90;;;;;;5063341;28;20312;-65
2022/03/04 07:04:05;;;;;;;14.32;12.80;;;5.60;99.90;;;;;;5064119;28;20229;-65
2022/03/04 07:06:36;;;;;;;13.82;12.43;;;5.70;99.90;;;;;;5064655;28;20317;-64
2022/03/04 07:09:07;;;;;;;14.02;12.55;;;5.80;99.90;;;;;;5071790;28;20202;-63
2022/03/04 07:11:40;;;;;;;11.55;10.40;;;5.90;99.90;;;;;;5073652;28;20209;-63
2022/03/04 07:14:10;;;;;;;14.50;10.70;;;5.90;99.90;;;;;;5067474;28;20258;-64
2022/03/04 07:16:41;;;;;;;12.10;10.40;;;5.90;99.90;;;;;;5065272;28;20217;-62
2022/03/04 07:19:12;;;;;;;12.60;11.30;;;5.90;99.90;;;;;;5066887;28;20546;-64
2022/03/04 07:21:43;;;;;;;11.85;10.75;;;6.00;99.90;;;;;;5067695;28;20209;-64
2022/03/04 07:24:15;;;;;;;12.25;10.85;;;6.10;99.90;;;;;;5065126;28;20621;-63
2022/03/04 07:26:47;;;;;;;12.65;10.95;;;6.10;99.90;;;;;;5064677;28;20212;-62
2022/03/04 07:29:22;;;;;;;11.10;10.00;;;6.10;99.90;;;;;;5073761;28;20548;-61
2022/03/04 07:31:53;;;;;;;12.73;11.48;;;6.20;99.90;;;;;;5064728;28;20201;-62
2022/03/04 07:34:30;;;;;;;14.13;12.30;;;6.20;99.90;;;;;;5065773;28;20555;-61
2022/03/04 07:37:03;;;;;;;12.90;11.60;;;6.30;99.90;;;;;;5064533;28;20281;-62
2022/03/04 07:39:34;;;;;;;14.20;12.70;;;6.30;99.90;;;;;;5065627;28;20202;-63
2022/03/04 07:42:07;;;;;;;12.27;11.07;;;6.30;99.90;;;;;;5064130;28;20280;-62
2022/03/04 07:44:40;;;;;;;13.80;12.60;;;6.30;99.90;;;;;;5065841;28;20240;-62
2022/03/04 07:47:11;;;;;;;13.55;11.45;;;6.30;99.90;;;;;;5064123;28;20274;-62
2022/03/04 07:49:43;;;;;;;11.48;10.40;;;6.40;99.90;;;;;;5065842;28;20218;-61
2022/03/04 07:52:14;;;;;;;11.85;10.77;;;6.40;99.90;;;;;;5063863;28;20194;-63
2022/03/04 07:54:45;;;;;;;8.82;7.93;;;6.40;99.90;;;;;;5064229;28;20193;-62
2022/03/04 07:57:18;;;;;;;9.43;8.40;;;6.50;99.90;;;;;;5065360;28;20198;-63
2022/03/04 07:59:52;;;;;;;9.63;8.77;;;6.60;99.90;;;;;;5059959;28;20221;-62
2022/03/04 08:02:23;;;;;;;9.32;8.52;;;6.70;99.90;;;;;;5063929;28;20216;-63
2022/03/04 08:04:55;;;;;;;9.77;8.75;;;6.60;99.90;;;;;;5063822;28;20289;-63
2022/03/04 08:07:26;;;;;;;6.95;6.30;;;6.50;99.90;;;;;;5067112;28;20190;-63
2022/03/04 08:10:00;;;;;;;6.00;5.50;;;6.50;99.90;;;;;;5061522;28;20249;-62
2022/03/04 08:12:33;;;;;;;5.68;5.18;;;6.50;99.90;;;;;;5066800;28;20301;-63
2022/03/04 08:15:08;;;;;;;4.93;4.22;;;6.60;99.90;;;;;;5063346;28;20230;-63
2022/03/04 08:17:39;;;;;;;4.50;3.95;;;6.60;99.90;;;;;;5068702;28;20657;-63
2022/03/04 08:20:12;;;;;;;3.97;3.60;;;6.60;99.90;;;;;;5063881;28;20209;-61
2022/03/04 08:22:43;;;;;;;4.88;3.55;;;6.60;99.90;;;;;;5052945;28;20198;-62
2022/03/04 08:25:14;;;;;;;3.83;3.42;;;6.70;99.90;;;;;;5062436;28;20322;-62
2022/03/04 08:27:46;;;;;;;3.10;2.80;;;6.70;99.90;;;;;;5056872;28;20202;-63
2022/03/04 08:30:21;;;;;;;3.63;3.30;;;6.70;99.90;;;;;;5063657;28;20216;-63
2022/03/04 08:32:52;;;;;;;3.42;3.13;;;6.70;99.90;;;;;;5063178;28;20212;-62
2022/03/04 08:35:23;;;;;;;3.45;2.65;;;6.70;99.90;;;;;;5064152;28;20232;-62
2022/03/04 08:37:54;;;;;;;1.98;1.88;;;6.70;99.90;;;;;;5062536;28;20285;-62
2022/03/04 08:40:25;;;;;;;3.15;2.33;;;6.60;99.90;;;;;;5057835;28;20213;-63
2022/03/04 08:42:58;;;;;;;1.80;1.70;;;6.60;99.90;;;;;;5047763;28;20194;-62
2022/03/04 08:45:29;;;;;;;1.98;1.50;;;6.60;99.90;;;;;;5064736;28;20578;-63
2022/03/04 08:47:59;;;;;;;2.80;2.10;;;6.70;99.90;;;;;;5058564;28;20206;-63
2022/03/04 08:50:30;;;;;;;2.97;1.65;;;6.70;99.90;;;;;;5067103;28;20229;-61
2022/03/04 08:53:02;;;;;;;3.30;1.60;;;6.70;99.90;;;;;;5068049;28;20190;-62
2022/03/04 08:55:33;;;;;;;1.33;1.20;;;6.70;99.90;;;;;;5067199;28;20193;-61
2022/03/04 08:58:05;;;;;;;1.35;1.20;;;6.70;99.90;;;;;;5071110;28;20558;-62
2022/03/04 09:00:36;;;;;;;3.05;1.27;;;6.70;99.90;;;;;;5064918;28;20276;-61
2022/03/04 09:03:08;;;;;;;2.22;2.03;;;6.70;99.90;;;;;;5062042;28;20276;-62
2022/03/04 09:05:39;;;;;;;2.05;1.85;;;6.70;99.90;;;;;;5063421;28;20225;-62
2022/03/04 09:08:10;;;;;;;2.05;1.85;;;6.80;99.90;;;;;;5063358;28;20188;-63
2022/03/04 09:10:41;;;;;;;2.58;2.38;;;6.70;99.90;;;;;;5062820;28;20733;-62
2022/03/04 09:13:14;;;;;;;2.28;2.08;;;6.60;99.90;;;;;;5065424;28;20197;-62
2022/03/04 09:15:45;;;;;;;1.88;1.73;;;6.60;99.90;;;;;;5066984;28;20303;-62
2022/03/04 09:18:15;;;;;;;2.40;2.22;;;6.60;99.90;;;;;;5065644;28;20198;-62
2022/03/04 09:20:46;;;;;;;2.60;1.70;;;6.70;99.90;;;;;;5061541;28;20196;-62
2022/03/04 09:23:17;;;;;;;2.00;1.40;;;6.70;99.90;;;;;;5062446;28;20198;-62
2022/03/04 09:25:48;;;;;;;1.40;1.30;;;6.60;99.90;;;;;;5066802;28;20227;-62
2022/03/04 09:28:21;;;;;;;1.73;1.20;;;6.60;99.90;;;;;;5065419;28;20292;-62
2022/03/04 09:30:52;;;;;;;1.73;1.30;;;6.50;99.90;;;;;;5062251;28;20281;-63
2022/03/04 09:33:23;;;;;;;2.63;1.30;;;6.50;99.90;;;;;;5066319;28;20197;-63
2022/03/04 09:35:53;;;;;;;1.40;1.20;;;6.60;99.90;;;;;;5062511;28;20204;-63
2022/03/04 09:38:24;;;;;;;2.25;1.75;;;6.60;99.90;;;;;;5075928;28;20207;-62
2022/03/04 09:40:55;;;;;;;1.80;1.50;;;6.70;99.90;;;;;;5061383;28;20289;-62
2022/03/04 09:43:29;;;;;;;1.75;1.65;;;6.70;99.90;;;;;;5061856;28;20292;-62
2022/03/04 09:46:00;;;;;;;2.22;1.20;;;6.60;99.90;;;;;;5062664;28;20676;-63
2022/03/04 09:48:32;;;;;;;1.60;1.50;;;6.70;99.90;;;;;;5062075;28;20652;-62
2022/03/04 09:51:05;;;;;;;1.52;1.42;;;6.60;99.90;;;;;;5051405;28;20346;-63
2022/03/04 09:53:36;;;;;;;3.55;1.45;;;6.70;99.90;;;;;;5062344;28;20202;-62
2022/03/04 09:56:07;;;;;;;1.98;1.60;;;6.70;99.90;;;;;;5067748;28;20625;-63
2022/03/04 09:58:39;;;;;;;1.90;1.67;;;6.70;99.90;;;;;;5065024;28;20294;-63
2022/03/04 10:01:12;;;;;;;2.55;1.50;;;6.70;99.90;;;;;;5062620;28;20216;-62
2022/03/04 10:03:50;;;;;;;3.00;2.10;;;6.70;99.90;;;;;;5073286;28;20229;-62
2022/03/04 10:06:22;;;;;;;2.30;2.10;;;6.70;99.90;;;;;;5062061;28;20218;-62
2022/03/04 10:08:54;;;;;;;2.85;1.90;;;6.70;99.90;;;;;;5057111;28;20198;-62
2022/03/04 10:11:30;;;;;;;3.00;2.05;;;6.70;99.90;;;;;;5062147;28;20649;-62
2022/03/04 10:14:04;;;;;;;2.75;2.55;;;6.80;99.90;;;;;;5061053;28;20236;-63
2022/03/04 10:16:36;;;;;;;3.40;2.65;;;6.80;99.90;;;;;;5068548;28;20231;-62
2022/03/04 10:19:13;;;;;;;3.20;2.95;;;6.80;99.90;;;;;;5061785;28;20275;-63
2022/03/04 10:21:52;;;;;;;4.00;3.60;;;6.80;99.90;;;;;;5068939;28;20205;-62
2022/03/04 10:24:30;;;;;;;5.03;4.10;;;6.80;99.90;;;;;;5068025;28;20646;-63
2022/03/04 10:27:05;;;;;;;4.68;4.28;;;6.80;99.90;;;;;;5067888;28;20213;-62
2022/03/04 10:29:41;;;;;;;6.38;4.65;;;6.80;99.90;;;;;;5062840;28;20284;-62
2022/03/04 10:32:20;;;;;;;6.55;4.90;;;6.70;99.90;;;;;;5070369;28;20224;-62
2022/03/04 10:34:55;;;;;;;4.30;3.90;;;6.80;99.90;;;;;;5063354;28;20205;-62
2022/03/04 10:37:40;;;;;;;5.32;4.30;;;6.80;99.90;;;;;;5060707;28;20706;-62
2022/03/04 10:40:15;;;;;;;4.75;4.30;;;6.80;99.90;;;;;;5077395;28;20306;-62
2022/03/04 10:42:49;;;;;;;5.38;4.88;;;6.80;99.90;;;;;;5070164;28;20620;-63
2022/03/04 10:45:24;;;;;;;6.07;5.18;;;6.80;99.90;;;;;;5066092;28;20205;-63
2022/03/04 10:47:58;;;;;;;4.75;4.35;;;6.80;99.90;;;;;;5052825;28;20225;-62
2022/03/04 10:50:32;;;;;;;6.00;4.53;;;6.90;99.90;;;;;;5075746;28;20209;-62
2022/03/04 10:53:05;;;;;;;4.97;4.45;;;7.00;99.90;;;;;;5067871;28;20251;-63
2022/03/04 10:55:44;;;;;;;5.38;4.70;;;7.00;99.90;;;;;;5076951;28;20231;-62
2022/03/04 10:58:17;;;;;;;4.43;4.03;;;7.00;99.90;;;;;;5075271;28;20532;-62
2022/03/04 11:00:51;;;;;;;5.30;4.80;;;6.90;99.90;;;;;;5070631;28;20185;-62
2022/03/04 11:03:23;;;;;;;4.78;4.38;;;7.00;99.90;;;;;;5066729;28;20205;-62
2022/03/04 11:05:55;;;;;;;4.85;4.45;;;7.00;99.90;;;;;;5066286;28;20208;-62
2022/03/04 11:08:27;;;;;;;4.50;4.07;;;6.90;99.90;;;;;;5060527;28;20212;-62
2022/03/04 11:11:04;;;;;;;5.20;4.05;;;6.90;99.90;;;;;;5067799;28;20513;-62
2022/03/04 11:13:35;;;;;;;5.68;4.15;;;7.00;99.90;;;;;;5074558;28;20210;-62
2022/03/04 11:16:08;;;;;;;4.95;4.25;;;7.00;99.90;;;;;;5065583;28;20194;-63
2022/03/04 11:18:40;;;;;;;5.65;5.25;;;6.90;99.90;;;;;;5065247;28;20202;-62
2022/03/04 11:21:11;;;;;;;4.47;4.07;;;6.90;99.90;;;;;;5080246;28;20210;-62
2022/03/04 11:23:47;;;;;;;4.82;4.40;;;7.00;99.90;;;;;;5075220;28;20528;-62
2022/03/04 11:26:23;;;;;;;4.45;4.05;;;7.00;99.90;;;;;;5075143;28;20232;-62
2022/03/04 11:28:54;;;;;;;4.75;4.35;;;6.90;99.90;;;;;;5064379;28;20838;-63
2022/03/04 11:31:28;;;;;;;4.70;4.30;;;7.00;99.90;;;;;;5065196;28;20268;-63
2022/03/04 11:34:05;;;;;;;4.90;4.50;;;6.90;99.90;;;;;;5070536;28;20198;-62
2022/03/04 11:36:39;;;;;;;4.50;4.10;;;7.00;99.90;;;;;;5065255;28;20217;-62
2022/03/04 11:39:15;;;;;;;4.78;4.25;;;7.10;99.90;;;;;;5064291;28;20205;-62
2022/03/04 11:42:12;;;;;;;5.47;4.88;;;7.10;99.90;;;;;;5066201;28;20201;-62
2022/03/04 11:45:10;;;;;;;6.55;4.43;;;7.00;99.90;;;;;;5064757;28;20244;-62
2022/03/04 11:47:46;;;;;;;2.28;2.08;;;7.00;99.90;;;;;;5009060;28;20258;-62
2022/03/04 11:50:31;;;;;;;3.90;3.60;;;6.90;99.90;;;;;;5022456;28;20579;-62
2022/03/04 11:53:17;;;;;;;4.97;4.55;;;7.00;99.90;;;;;;5020954;28;20235;-62
2022/03/04 11:56:16;;;;;;;5.78;4.40;;;7.00;99.90;;;;;;5033419;28;20299;-63
2022/03/04 11:59:06;;;;;;;4.78;4.40;;;6.90;99.90;;;;;;5022678;28;20218;-63
2022/03/04 12:01:38;;;;;;;3.92;3.65;;;7.00;99.90;;;;;;5019038;28;20204;-62
2022/03/04 12:04:12;;;;;;;4.38;3.78;;;7.00;99.90;;;;;;5021858;28;20227;-62
2022/03/04 12:06:44;;;;;;;3.42;3.13;;;7.00;99.90;;;;;;5032658;28;20316;-62
2022/03/04 12:09:29;;;;;;;3.80;3.50;;;7.10;99.90;;;;;;5024001;28;20214;-62
2022/03/04 12:12:18;;;;;;;3.40;3.10;;;7.00;99.90;;;;;;5021937;28;20230;-62
2022/03/04 12:14:50;;;;;;;3.88;2.83;;;7.00;99.90;;;;;;5022402;28;20587;-62
2022/03/04 12:17:22;;;;;;;2.85;2.65;;;7.00;99.90;;;;;;5021747;28;20199;-62
2022/03/04 12:19:56;;;;;;;3.45;2.70;;;7.00;99.90;;;;;;5023240;28;20190;-62
2022/03/04 12:22:27;;;;;;;2.58;2.38;;;7.00;99.90;;;;;;5025540;28;20618;-62
2022/03/04 12:25:04;;;;;;;3.33;3.03;;;7.00;99.90;;;;;;5057253;28;20221;-62
2022/03/04 12:27:41;;;;;;;3.88;3.50;;;7.00;99.90;;;;;;5063475;28;20613;-62
2022/03/04 12:30:19;;;;;;;4.03;3.65;;;7.00;99.90;;;;;;5064294;28;20205;-62
2022/03/04 12:32:51;;;;;;;3.38;3.08;;;7.00;99.90;;;;;;5066935;28;20212;-62
2022/03/04 12:35:24;;;;;;;2.78;2.58;;;6.90;99.90;;;;;;5065740;28;20197;-62
2022/03/04 12:37:55;;;;;;;3.00;2.70;;;6.90;99.90;;;;;;5064426;28;20186;-62
2022/03/04 12:40:28;;;;;;;2.80;2.60;;;6.90;99.90;;;;;;5064645;28;20202;-62
2022/03/04 12:42:59;;;;;;;3.78;2.65;;;6.90;99.90;;;;;;5064727;28;20203;-62
2022/03/04 12:45:30;;;;;;;2.60;2.40;;;6.80;99.90;;;;;;5064129;28;20197;-62
2022/03/04 12:48:01;;;;;;;3.20;2.80;;;6.80;99.90;;;;;;5065807;28;20290;-62
2022/03/04 12:50:35;;;;;;;3.03;2.33;;;6.80;99.90;;;;;;5064366;28;20190;-62
2022/03/04 12:53:20;;;;;;;2.80;2.53;;;6.80;99.90;;;;;;5065871;28;20200;-62
2022/03/04 12:55:51;;;;;;;2.60;2.40;;;6.70;99.90;;;;;;5058601;28;20251;-62
2022/03/04 12:58:36;;;;;;;2.15;1.95;;;6.80;99.90;;;;;;5062958;28;20216;-62
2022/03/04 13:01:07;;;;;;;2.85;2.65;;;6.80;99.90;;;;;;5064400;28;20215;-62
2022/03/04 13:03:39;;;;;;;2.50;2.30;;;6.70;99.90;;;;;;5063408;28;20217;-62
2022/03/04 13:06:11;;;;;;;1.95;1.75;;;6.70;99.90;;;;;;5063461;28;20301;-62
2022/03/04 13:08:50;;;;;;;2.08;1.98;;;6.60;99.90;;;;;;5060413;28;20273;-63
2022/03/04 13:11:23;;;;;;;1.90;1.80;;;6.70;99.90;;;;;;5065335;28;20190;-61
2022/03/04 13:13:57;;;;;;;1.83;1.67;;;6.60;99.90;;;;;;5062512;28;20261;-61
2022/03/04 13:16:32;;;;;;;1.65;1.55;;;6.60;99.90;;;;;;5063307;28;20220;-62
2022/03/04 13:19:05;;;;;;;1.92;1.40;;;6.60;99.90;;;;;;5070156;28;20197;-61
2022/03/04 13:21:40;;;;;;;1.60;1.50;;;6.60;99.90;;;;;;5052687;28;20197;-62